createdAt,value
2018-12-19T00:00:56.597Z,5.37
2018-12-19T00:03:24.096Z,5.60
2018-12-19T00:05:51.633Z,5.50
2018-12-19T00:08:19.155Z,5.53
2018-12-19T00:10:46.781Z,5.00
2018-12-19T00:13:16.215Z,5.60
2018-12-19T00:15:43.682Z,5.70
2018-12-19T00:18:11.098Z,5.23
2018-12-19T00:20:38.565Z,5.80
2018-12-19T00:23:05.982Z,5.40
2018-12-19T00:25:33.537Z,5.90
2018-12-19T00:28:00.971Z,5.27
2018-12-19T00:30:28.406Z,4.90
2018-12-19T00:32:55.889Z,6.20
2018-12-19T00:35:25.179Z,5.93
2018-12-19T00:37:52.696Z,5.20
2018-12-19T00:40:20.171Z,5.70
2018-12-19T00:42:47.623Z,6.10
2018-12-19T00:45:15.073Z,5.50
2018-12-19T00:47:42.567Z,5.83
2018-12-19T00:50:10.122Z,5.60
2018-12-19T00:52:37.674Z,5.53
2018-12-19T00:55:05.183Z,5.30
2018-12-19T00:57:32.655Z,5.70
2018-12-19T01:00:00.092Z,5.83
2018-12-19T01:02:27.698Z,5.53
2018-12-19T01:04:55.297Z,6.47
2018-12-19T01:07:22.764Z,5.97
2018-12-19T01:09:50.224Z,5.80
2018-12-19T01:12:17.681Z,5.67
2018-12-19T01:14:45.142Z,6.00
2018-12-19T01:17:12.658Z,5.80
2018-12-19T01:19:40.149Z,5.73
2018-12-19T01:22:07.601Z,5.87
2018-12-19T01:24:35.087Z,6.50
2018-12-19T01:27:02.727Z,5.83
2018-12-19T01:29:30.221Z,6.20
2018-12-19T01:31:57.720Z,6.17
2018-12-19T01:34:25.207Z,6.27
2018-12-19T01:36:52.714Z,6.50
2018-12-19T01:39:22.622Z,6.73
2018-12-19T01:41:49.719Z,6.13
2018-12-19T01:44:17.198Z,6.23
2018-12-19T01:46:44.754Z,7.10
2018-12-19T01:49:12.206Z,7.13
2018-12-19T01:51:39.768Z,6.03
2018-12-19T01:54:07.200Z,6.30
2018-12-19T01:56:34.654Z,6.10
2018-12-19T01:59:02.130Z,6.17
2018-12-19T02:01:29.619Z,6.73
2018-12-19T02:04:00.363Z,7.43
2018-12-19T02:06:27.836Z,6.27
2018-12-19T02:08:55.290Z,6.60
2018-12-19T02:11:22.735Z,6.67
2018-12-19T02:13:50.162Z,6.63
2018-12-19T02:16:17.620Z,6.23
2018-12-19T02:18:45.111Z,6.30
2018-12-19T02:21:12.620Z,6.23
2018-12-19T02:23:40.145Z,6.47
2018-12-19T02:26:07.569Z,6.40
2018-12-19T02:28:35.011Z,6.20
2018-12-19T02:31:04.482Z,6.30
2018-12-19T02:33:32.046Z,6.80
2018-12-19T02:35:59.504Z,6.30
2018-12-19T02:38:26.961Z,5.93
2018-12-19T02:40:54.504Z,6.60
2018-12-19T02:43:21.947Z,6.03
2018-12-19T02:45:49.472Z,6.43
2018-12-19T02:48:16.907Z,6.27
2018-12-19T02:50:44.405Z,6.43
2018-12-19T02:53:11.854Z,6.33
2018-12-19T02:55:39.299Z,6.23
2018-12-19T02:58:06.759Z,5.73
2018-12-19T03:00:34.198Z,5.97
2018-12-19T03:03:01.711Z,6.57
2018-12-19T03:05:29.168Z,6.47
2018-12-19T03:07:56.606Z,7.00
2018-12-19T03:10:24.076Z,6.83
2018-12-19T03:12:51.538Z,6.63
2018-12-19T03:15:19.019Z,7.63
2018-12-19T03:17:46.671Z,6.40
2018-12-19T03:20:14.190Z,6.57
2018-12-19T03:22:41.686Z,6.00
2018-12-19T03:25:09.172Z,6.77
2018-12-19T03:27:36.632Z,6.43
2018-12-19T03:30:05.109Z,6.50
2018-12-19T03:35:06.427Z,6.50
2018-12-19T03:37:33.923Z,6.50
2018-12-19T03:40:01.368Z,6.10
2018-12-19T03:42:28.829Z,6.33
2018-12-19T03:44:56.334Z,6.40
2018-12-19T03:47:23.785Z,6.17
2018-12-19T03:49:51.298Z,6.60
2018-12-19T03:52:18.770Z,6.60
2018-12-19T03:54:46.412Z,6.60
2018-12-19T03:57:14.217Z,6.33
2018-12-19T03:59:41.670Z,6.30
2018-12-19T04:02:09.241Z,6.33
2018-12-19T04:04:36.667Z,6.87
2018-12-19T04:07:04.145Z,6.30
2018-12-19T04:09:31.605Z,6.63
2018-12-19T04:11:59.120Z,6.30
2018-12-19T04:14:26.594Z,6.20
2018-12-19T04:16:54.032Z,6.30
2018-12-19T04:19:21.498Z,6.77
2018-12-19T04:21:48.929Z,6.33
2018-12-19T04:24:16.429Z,6.70
2018-12-19T04:26:43.958Z,7.20
2018-12-19T04:29:11.406Z,6.67
2018-12-19T04:31:38.958Z,6.47
2018-12-19T04:34:06.391Z,6.90
2018-12-19T04:36:34.904Z,7.30
2018-12-19T04:39:02.436Z,6.97
2018-12-19T04:41:29.917Z,7.27
2018-12-19T04:43:57.606Z,7.20
2018-12-19T04:46:25.111Z,7.37
2018-12-19T04:48:52.571Z,6.80
2018-12-19T04:51:20.032Z,7.60
2018-12-19T04:53:47.515Z,7.63
2018-12-19T04:56:15.022Z,7.13
2018-12-19T04:58:42.503Z,7.30
2018-12-19T05:01:10.024Z,8.03
2018-12-19T05:03:39.036Z,7.73
2018-12-19T05:06:06.532Z,7.90
2018-12-19T05:08:33.996Z,7.30
2018-12-19T05:11:01.525Z,8.23
2018-12-19T05:13:28.988Z,8.00
2018-12-19T05:15:56.429Z,8.00
2018-12-19T05:18:23.882Z,8.33
2018-12-19T05:20:51.385Z,8.97
2018-12-19T05:23:18.851Z,8.43
2018-12-19T05:25:46.329Z,7.93
2018-12-19T05:28:14.531Z,7.83
2018-12-19T05:30:42.288Z,8.77
2018-12-19T05:33:09.755Z,8.57
2018-12-19T05:35:37.383Z,8.30
2018-12-19T05:38:04.830Z,8.00
2018-12-19T05:40:32.320Z,8.23
2018-12-19T05:43:00.112Z,8.20
2018-12-19T05:45:27.557Z,8.60
2018-12-19T05:47:55.051Z,8.00
2018-12-19T05:50:22.875Z,8.37
2018-12-19T05:52:51.394Z,7.40
2018-12-19T05:55:18.931Z,8.27
2018-12-19T05:57:46.447Z,7.40
2018-12-19T06:00:14.312Z,8.13
2018-12-19T06:02:41.855Z,8.40
2018-12-19T06:05:10.289Z,8.65
2018-12-19T06:07:37.726Z,7.67
2018-12-19T06:10:05.498Z,7.93
2018-12-19T06:12:32.947Z,7.97
2018-12-19T06:15:00.401Z,7.60
2018-12-19T06:17:27.844Z,6.73
2018-12-19T06:19:55.294Z,7.33
2018-12-19T06:22:22.778Z,7.70
2018-12-19T06:24:50.236Z,8.03
2018-12-19T06:27:17.708Z,7.90
2018-12-19T06:29:46.836Z,8.13
2018-12-19T06:32:14.276Z,8.03
2018-12-19T06:34:41.923Z,8.30
2018-12-19T06:37:09.376Z,8.20
2018-12-19T06:39:36.879Z,8.20
2018-12-19T06:42:04.349Z,8.67
2018-12-19T06:44:31.850Z,8.17
2018-12-19T06:46:59.345Z,7.73
2018-12-19T06:49:26.792Z,7.57
2018-12-19T06:51:54.312Z,8.63
2018-12-19T06:54:21.872Z,8.27
2018-12-19T06:56:49.405Z,8.17
2018-12-19T06:59:16.873Z,8.17
2018-12-19T07:01:44.349Z,8.47
2018-12-19T07:04:11.970Z,7.87
2018-12-19T07:06:39.439Z,7.90
2018-12-19T07:09:07.212Z,7.90
2018-12-19T07:11:34.684Z,8.17
2018-12-19T07:14:02.186Z,9.40
2018-12-19T07:16:29.858Z,8.27
2018-12-19T07:18:57.448Z,8.20
2018-12-19T07:21:25.983Z,7.97
2018-12-19T07:23:53.719Z,8.17
2018-12-19T07:26:21.166Z,7.80
2018-12-19T07:28:48.695Z,8.37
2018-12-19T07:31:16.136Z,8.87
2018-12-19T07:33:43.695Z,9.00
2018-12-19T07:36:11.186Z,8.40
2018-12-19T07:38:38.729Z,8.80
2018-12-19T07:41:07.966Z,8.80
2018-12-19T07:43:35.480Z,8.87
2018-12-19T07:46:03.042Z,8.93
2018-12-19T07:48:30.943Z,9.07
2018-12-19T07:50:58.725Z,8.00
2018-12-19T07:53:26.191Z,8.70
2018-12-19T07:55:54.051Z,8.73
2018-12-19T07:58:21.531Z,8.90
2018-12-19T08:00:49.042Z,8.90
2018-12-19T08:03:16.548Z,9.53
2018-12-19T08:05:44.188Z,8.80
2018-12-19T08:08:11.619Z,9.03
2018-12-19T08:10:39.114Z,8.30
2018-12-19T08:13:06.679Z,9.03
2018-12-19T08:15:34.328Z,9.17
2018-12-19T08:18:01.826Z,9.40
2018-12-19T08:20:29.364Z,9.13
2018-12-19T08:22:56.800Z,9.50
2018-12-19T08:25:24.273Z,8.77
2018-12-19T08:27:51.763Z,9.17
2018-12-19T08:30:19.245Z,9.00
2018-12-19T08:32:46.714Z,8.87
2018-12-19T08:35:15.157Z,9.87
2018-12-19T08:37:42.894Z,9.57
2018-12-19T08:40:10.397Z,9.10
2018-12-19T08:42:38.046Z,9.07
2018-12-19T08:45:05.731Z,8.53
2018-12-19T08:47:33.432Z,9.43
2018-12-19T08:50:00.950Z,9.47
2018-12-19T08:52:28.484Z,10.07
2018-12-19T08:54:55.974Z,9.20
2018-12-19T08:57:23.423Z,9.87
2018-12-19T08:59:50.919Z,8.87
2018-12-19T09:02:18.371Z,9.83
2018-12-19T09:04:45.983Z,8.70
2018-12-19T09:07:13.564Z,8.97
2018-12-19T09:09:41.046Z,9.53
2018-12-19T09:12:08.572Z,10.00
2018-12-19T09:14:36.072Z,9.33
2018-12-19T09:17:03.733Z,8.60
2018-12-19T09:19:31.388Z,9.77
2018-12-19T09:21:59.262Z,8.73
2018-12-19T09:24:26.736Z,9.17
2018-12-19T09:26:54.249Z,10.00
2018-12-19T09:29:21.713Z,9.80
2018-12-19T09:31:49.355Z,9.47
2018-12-19T09:34:16.945Z,9.13
2018-12-19T09:36:44.409Z,8.97
2018-12-19T09:39:12.001Z,9.47
2018-12-19T09:41:39.611Z,9.57
2018-12-19T09:44:08.617Z,9.00
2018-12-19T09:46:36.253Z,9.73
2018-12-19T09:49:03.704Z,8.83
2018-12-19T09:51:31.190Z,10.00
2018-12-19T09:53:58.748Z,9.20
2018-12-19T09:56:26.378Z,9.53
2018-12-19T09:58:54.079Z,8.80
2018-12-19T10:01:21.562Z,9.30
2018-12-19T10:03:49.187Z,9.47
2018-12-19T10:06:16.625Z,9.23
2018-12-19T10:08:44.173Z,9.73
2018-12-19T10:11:11.664Z,9.10
2018-12-19T10:13:39.222Z,9.40
2018-12-19T10:16:07.263Z,9.87
2018-12-19T10:18:34.758Z,9.70
2018-12-19T10:21:02.222Z,9.17
2018-12-19T10:23:30.066Z,9.30
2018-12-19T10:26:17.215Z,9.13
2018-12-19T10:28:44.709Z,10.13
2018-12-19T10:31:12.194Z,9.63
2018-12-19T10:33:39.712Z,9.53
2018-12-19T10:36:07.135Z,9.43
2018-12-19T10:38:34.657Z,9.30
2018-12-19T10:41:02.123Z,9.50
2018-12-19T10:43:29.641Z,9.70
2018-12-19T10:45:57.197Z,10.03
2018-12-19T10:48:24.657Z,10.47
2018-12-19T10:50:52.379Z,10.30
2018-12-19T10:53:19.931Z,10.77
2018-12-19T10:55:47.474Z,10.03
2018-12-19T10:58:14.975Z,10.03
2018-12-19T11:00:49.456Z,10.00
2018-12-19T11:03:16.922Z,17.00
2018-12-19T11:05:44.454Z,12.57
2018-12-19T11:08:11.890Z,12.33
2018-12-19T11:10:39.370Z,10.00
2018-12-19T11:13:06.830Z,9.43
2018-12-19T11:15:34.396Z,14.60
2018-12-19T11:18:01.964Z,9.87
2018-12-19T11:20:29.559Z,10.20
2018-12-19T11:22:57.006Z,10.73
2018-12-19T11:25:25.418Z,10.27
2018-12-19T11:27:53.062Z,10.03
2018-12-19T11:30:20.586Z,9.30
2018-12-19T11:32:48.705Z,10.43
2018-12-19T11:35:16.173Z,10.23
2018-12-19T11:37:43.652Z,9.80
2018-12-19T11:40:11.276Z,9.17
2018-12-19T11:42:38.809Z,9.93
2018-12-19T11:45:06.341Z,9.87
2018-12-19T11:47:33.889Z,10.57
2018-12-19T11:50:01.405Z,9.70
2018-12-19T11:52:28.906Z,10.50
2018-12-19T11:54:56.354Z,9.90
2018-12-19T11:57:24.184Z,9.60
2018-12-19T11:59:51.660Z,10.10
2018-12-19T12:02:19.118Z,10.10
2018-12-19T12:04:46.632Z,9.03
2018-12-19T12:07:14.512Z,9.67
2018-12-19T12:09:42.035Z,9.93
2018-12-19T12:12:09.719Z,9.57
2018-12-19T12:14:37.205Z,10.53
2018-12-19T12:17:05.025Z,9.63
2018-12-19T12:19:33.021Z,10.80
2018-12-19T12:22:00.504Z,9.63
2018-12-19T12:24:28.069Z,10.27
2018-12-19T12:26:55.578Z,9.90
2018-12-19T12:29:23.116Z,9.70
2018-12-19T12:31:50.612Z,10.13
2018-12-19T12:34:18.138Z,9.90
2018-12-19T12:36:45.829Z,9.53
2018-12-19T12:39:13.304Z,8.80
2018-12-19T12:41:40.764Z,10.83
2018-12-19T12:44:08.258Z,10.20
2018-12-19T12:46:35.805Z,10.17
2018-12-19T12:49:03.279Z,10.20
2018-12-19T12:51:30.751Z,10.83
2018-12-19T12:53:58.218Z,10.17
2018-12-19T12:56:25.672Z,10.00
2018-12-19T12:58:53.928Z,10.20
2018-12-19T13:01:21.450Z,10.53
2018-12-19T13:03:49.006Z,9.87
2018-12-19T13:06:16.470Z,10.80
2018-12-19T13:08:44.013Z,10.13
2018-12-19T13:11:11.560Z,11.10
2018-12-19T13:13:39.067Z,11.23
2018-12-19T13:16:06.531Z,10.33
2018-12-19T13:18:34.335Z,10.30
2018-12-19T13:21:01.809Z,10.87
2018-12-19T13:23:29.344Z,9.60
2018-12-19T13:25:56.998Z,9.80
2018-12-19T13:28:24.560Z,10.60
2018-12-19T13:30:52.107Z,9.97
2018-12-19T13:33:20.047Z,10.87
2018-12-19T13:35:47.755Z,9.67
2018-12-19T13:38:15.243Z,9.77
2018-12-19T13:40:42.760Z,8.83
2018-12-19T13:43:10.217Z,10.27
2018-12-19T13:45:37.714Z,10.03
2018-12-19T13:48:05.243Z,9.70
2018-12-19T13:50:32.758Z,10.07
2018-12-19T13:53:00.261Z,9.73
2018-12-19T13:55:27.755Z,9.67
2018-12-19T13:57:55.227Z,9.67
2018-12-19T14:00:22.804Z,10.13
2018-12-19T14:02:50.270Z,9.90
2018-12-19T14:05:17.760Z,10.07
2018-12-19T14:07:45.305Z,10.43
2018-12-19T14:10:12.747Z,10.13
2018-12-19T14:12:40.222Z,10.40
2018-12-19T14:15:08.487Z,10.60
2018-12-19T14:17:36.161Z,10.23
2018-12-19T14:20:05.559Z,9.73
2018-12-19T14:22:33.123Z,9.20
2018-12-19T14:25:00.677Z,10.20
2018-12-19T14:27:28.187Z,9.50
2018-12-19T14:29:55.648Z,9.50
2018-12-19T14:32:23.146Z,9.20
2018-12-19T14:34:50.608Z,9.77
2018-12-19T14:37:18.092Z,9.70
2018-12-19T14:39:45.571Z,9.80
2018-12-19T14:42:18.898Z,10.37
2018-12-19T14:44:42.707Z,9.90
2018-12-19T14:47:10.262Z,9.97
2018-12-19T14:49:37.844Z,10.53
2018-12-19T14:52:05.866Z,9.80
2018-12-19T14:54:33.392Z,9.83
2018-12-19T14:57:00.826Z,9.50
2018-12-19T14:59:28.322Z,9.53
2018-12-19T15:01:55.763Z,9.20
2018-12-19T15:04:23.269Z,9.77
2018-12-19T15:06:50.763Z,10.00
2018-12-19T15:09:18.605Z,10.10
2018-12-19T15:11:46.122Z,10.67
2018-12-19T15:14:14.523Z,9.40
2018-12-19T15:16:42.257Z,8.97
2018-12-19T15:19:11.073Z,8.67
2018-12-19T15:21:38.796Z,9.27
2018-12-19T15:24:06.323Z,9.80
2018-12-19T15:26:33.806Z,9.30
2018-12-19T15:29:01.252Z,9.40
2018-12-19T15:31:28.704Z,9.10
2018-12-19T15:33:56.159Z,9.13
2018-12-19T15:36:23.934Z,9.80
2018-12-19T15:38:51.409Z,9.50
2018-12-19T15:41:18.899Z,9.80
2018-12-19T15:43:46.500Z,9.47
2018-12-19T15:46:14.169Z,8.83
2018-12-19T15:48:41.673Z,9.87
2018-12-19T15:51:09.534Z,9.20
2018-12-19T15:53:36.988Z,9.37
2018-12-19T15:56:04.508Z,9.43
2018-12-19T15:58:32.670Z,8.93
2018-12-19T16:01:00.147Z,9.67
2018-12-19T16:03:27.647Z,9.77
2018-12-19T16:05:55.149Z,9.63
2018-12-19T16:08:22.729Z,9.47
2018-12-19T16:10:50.318Z,9.53
2018-12-19T16:13:17.813Z,9.73
2018-12-19T16:15:45.338Z,9.30
2018-12-19T16:18:14.312Z,10.90
2018-12-19T16:20:41.789Z,9.73
2018-12-19T16:23:09.226Z,10.73
2018-12-19T16:25:36.756Z,10.63
2018-12-19T16:28:04.313Z,10.17
2018-12-19T16:30:31.787Z,10.30
2018-12-19T16:32:59.295Z,10.73
2018-12-19T16:35:26.847Z,10.97
2018-12-19T16:37:54.581Z,11.60
2018-12-19T16:40:22.167Z,10.50
2018-12-19T16:42:49.810Z,10.70
2018-12-19T16:45:17.335Z,11.53
2018-12-19T16:47:44.800Z,10.77
2018-12-19T16:50:12.386Z,10.23
2018-12-19T16:52:40.369Z,11.43
2018-12-19T16:55:07.913Z,11.40
2018-12-19T16:57:35.563Z,11.57
2018-12-19T17:00:04.330Z,11.10
2018-12-19T17:02:31.976Z,11.07
2018-12-19T17:04:59.452Z,10.60
2018-12-19T17:07:26.917Z,11.10
2018-12-19T17:09:54.434Z,11.03
2018-12-19T17:12:21.908Z,10.97
2018-12-19T17:14:50.003Z,12.10
2018-12-19T17:17:17.485Z,11.40
2018-12-19T17:19:45.070Z,10.50
2018-12-19T17:22:12.636Z,11.87
2018-12-19T17:24:42.613Z,11.53
2018-12-19T17:27:10.269Z,12.03
2018-12-19T17:29:37.856Z,11.37
2018-12-19T17:32:05.360Z,12.43
2018-12-19T17:34:33.781Z,11.80
2018-12-19T17:37:01.313Z,11.00
2018-12-19T17:39:29.279Z,12.23
2018-12-19T17:41:56.754Z,11.83
2018-12-19T17:44:24.215Z,11.37
2018-12-19T17:46:51.825Z,10.67
2018-12-19T17:49:19.295Z,12.30
2018-12-19T17:51:46.792Z,12.97
2018-12-19T17:54:15.374Z,12.30
2018-12-19T17:56:43.844Z,11.43
2018-12-19T17:59:11.340Z,11.53
2018-12-19T18:01:38.895Z,10.40
2018-12-19T18:04:06.428Z,12.40
2018-12-19T18:06:33.937Z,11.83
2018-12-19T18:09:01.412Z,11.43
2018-12-19T18:11:29.435Z,12.30
2018-12-19T18:16:29.006Z,12.90
2018-12-19T18:18:56.481Z,12.97
2018-12-19T18:21:24.395Z,12.57
2018-12-19T18:23:51.921Z,13.37
2018-12-19T18:26:20.297Z,14.07
2018-12-19T18:28:47.916Z,14.87
2018-12-19T18:31:15.581Z,14.23
2018-12-19T18:33:43.122Z,14.83
2018-12-19T18:36:10.647Z,14.50
2018-12-19T18:38:38.195Z,14.23
2018-12-19T18:41:05.683Z,13.37
2018-12-19T18:43:34.274Z,14.23
2018-12-19T18:46:01.770Z,14.77
2018-12-19T18:48:29.369Z,14.53
2018-12-19T18:50:56.863Z,14.27
2018-12-19T18:53:24.549Z,14.60
2018-12-19T18:55:52.954Z,14.50
2018-12-19T18:58:20.495Z,14.63
2018-12-19T19:00:47.954Z,15.17
2018-12-19T19:03:15.616Z,15.47
2018-12-19T19:05:43.146Z,15.70
2018-12-19T19:08:10.658Z,15.10
2018-12-19T19:10:39.709Z,14.37
2018-12-19T19:13:07.197Z,16.00
2018-12-19T19:15:34.648Z,14.73
2018-12-19T19:18:02.180Z,15.10
2018-12-19T19:20:29.641Z,13.60
2018-12-19T19:22:57.374Z,15.07
2018-12-19T19:25:24.921Z,14.80
2018-12-19T19:27:52.488Z,15.27
2018-12-19T19:30:20.173Z,14.10
2018-12-19T19:32:47.781Z,15.67
2018-12-19T19:35:15.523Z,15.03
2018-12-19T19:37:43.036Z,14.17
2018-12-19T19:40:11.026Z,14.60
2018-12-19T19:42:38.757Z,13.90
2018-12-19T19:45:06.739Z,14.00
2018-12-19T19:47:35.297Z,14.70
2018-12-19T19:50:03.205Z,15.23
2018-12-19T19:52:30.767Z,14.73
2018-12-19T19:54:59.176Z,14.13
2018-12-19T19:57:26.690Z,14.63
2018-12-19T19:59:54.203Z,14.83
2018-12-19T20:02:21.922Z,15.70
2018-12-19T20:04:51.112Z,14.10
2018-12-19T20:07:18.663Z,15.17
2018-12-19T20:09:46.260Z,14.40
2018-12-19T20:12:15.021Z,14.27
2018-12-19T20:14:42.628Z,15.33
2018-12-19T20:17:12.102Z,15.13
2018-12-19T20:19:39.634Z,14.73
2018-12-19T20:22:07.123Z,15.07
2018-12-19T20:24:35.379Z,15.37
2018-12-19T20:27:02.906Z,15.87
2018-12-19T20:29:31.799Z,16.30
2018-12-19T20:31:59.355Z,15.80
2018-12-19T20:34:26.902Z,15.80
2018-12-19T20:36:55.122Z,15.33
2018-12-19T20:39:23.558Z,15.40
2018-12-19T20:41:51.049Z,15.70
2018-12-19T20:44:18.603Z,16.07
2018-12-19T20:46:46.109Z,17.13
2018-12-19T20:49:13.610Z,16.17
2018-12-19T20:51:41.073Z,15.37
2018-12-19T20:54:08.589Z,15.57
2018-12-19T20:56:37.452Z,16.53
2018-12-19T20:59:05.124Z,16.43
2018-12-19T21:01:32.661Z,15.93
2018-12-19T21:04:00.345Z,16.37
2018-12-19T21:06:27.969Z,16.40
2018-12-19T21:08:55.745Z,16.43
2018-12-19T21:11:23.369Z,15.70
2018-12-19T21:13:51.030Z,16.53
2018-12-19T21:16:20.707Z,16.00
2018-12-19T21:18:50.259Z,16.90
2018-12-19T21:21:18.120Z,16.70
2018-12-19T21:23:45.587Z,16.20
2018-12-19T21:26:13.345Z,17.67
2018-12-19T21:28:40.809Z,16.73
2018-12-19T21:31:08.535Z,16.83
2018-12-19T21:33:36.196Z,16.30
2018-12-19T21:36:05.217Z,16.23
2018-12-19T21:38:32.784Z,16.03
2018-12-19T21:41:00.455Z,17.93
2018-12-19T21:43:28.165Z,19.37
2018-12-19T21:45:55.849Z,15.80
2018-12-19T21:48:23.451Z,18.70
2018-12-19T21:50:51.039Z,17.97
2018-12-19T21:53:19.148Z,16.43
2018-12-19T21:55:46.931Z,16.90
2018-12-19T21:58:14.784Z,16.97
2018-12-19T22:00:42.353Z,16.83
2018-12-19T22:03:09.962Z,15.67
2018-12-19T22:05:37.930Z,23.60
2018-12-19T22:08:05.649Z,26.20
2018-12-19T22:10:33.163Z,25.73
2018-12-19T22:13:00.779Z,20.27
2018-12-19T22:15:28.371Z,17.03
2018-12-19T22:18:01.543Z,16.93
2018-12-19T22:20:29.095Z,16.63
2018-12-19T22:22:56.718Z,17.10
2018-12-19T22:25:25.202Z,16.63
2018-12-19T22:27:53.613Z,15.57
2018-12-19T22:30:21.220Z,17.23
2018-12-19T22:32:48.707Z,22.53
2018-12-19T22:35:16.323Z,19.37
2018-12-19T22:37:43.920Z,20.47
2018-12-19T22:40:11.474Z,17.77
2018-12-19T22:42:39.120Z,17.80
2018-12-19T22:45:06.845Z,17.23
2018-12-19T22:47:34.360Z,16.20
2018-12-19T22:50:01.992Z,16.53
2018-12-19T22:52:29.610Z,16.67
2018-12-19T22:54:57.096Z,16.23
2018-12-19T22:57:24.756Z,16.13
2018-12-19T22:59:52.317Z,17.20
2018-12-19T23:02:25.445Z,16.37
2018-12-19T23:04:53.143Z,16.77
2018-12-19T23:07:20.725Z,15.60
2018-12-19T23:09:48.401Z,15.13
2018-12-19T23:12:15.994Z,16.67
2018-12-19T23:14:43.529Z,16.67
2018-12-19T23:17:16.731Z,16.13
2018-12-19T23:19:44.436Z,17.20
2018-12-19T23:22:11.974Z,16.23
2018-12-19T23:24:39.552Z,16.03
2018-12-19T23:27:07.105Z,16.40
2018-12-19T23:29:34.565Z,16.73
2018-12-19T23:32:02.164Z,16.13
2018-12-19T23:34:29.648Z,16.67
2018-12-19T23:36:57.412Z,15.60
2018-12-19T23:39:25.120Z,16.67
2018-12-19T23:41:52.678Z,15.83
2018-12-19T23:44:22.587Z,16.20
2018-12-19T23:46:50.261Z,17.00
2018-12-19T23:49:17.946Z,15.60
2018-12-19T23:51:45.501Z,17.43
2018-12-19T23:54:13.071Z,17.17
2018-12-19T23:56:41.591Z,16.43
2018-12-19T23:59:09.209Z,16.20
